sensor_id;sensor_type;location;lat;lon;timestamp;temperature;humidity
17053;DHT22;8643;48.824;11.422;2024-03-23T00:51:53;7.30;99.90
17053;DHT22;8643;48.824;11.422;2024-03-23T00:54:21;7.30;99.90
17053;DHT22;8643;48.824;11.422;2024-03-23T00:56:47;7.10;99.90
17053;DHT22;8643;48.824;11.422;2024-03-23T00:59:15;7.10;99.90
17053;DHT22;8643;48.824;11.422;2024-03-23T01:01:41;7.00;99.90
17053;DHT22;8643;48.824;11.422;2024-03-23T01:04:09;7.00;99.90
17053;DHT22;8643;48.824;11.422;2024-03-23T01:06:35;7.10;99.90
17053;DHT22;8643;48.824;11.422;2024-03-23T01:09:04;7.10;99.90
17053;DHT22;8643;48.824;11.422;2024-03-23T01:11:30;7.10;99.90
17053;DHT22;8643;48.824;11.422;2024-03-23T01:13:58;7.20;99.90
17053;DHT22;8643;48.824;11.422;2024-03-23T01:16:24;7.10;99.90
17053;DHT22;8643;48.824;11.422;2024-03-23T01:18:51;7.10;99.90
17053;DHT22;8643;48.824;11.422;2024-03-23T01:21:18;7.10;99.90
17053;DHT22;8643;48.824;11.422;2024-03-23T01:23:45;7.10;99.90
17053;DHT22;8643;48.824;11.422;2024-03-23T01:26:13;7.10;99.90
17053;DHT22;8643;48.824;11.422;2024-03-23T01:28:40;7.00;99.90
17053;DHT22;8643;48.824;11.422;2024-03-23T01:31:07;7.10;99.90
17053;DHT22;8643;48.824;11.422;2024-03-23T01:33:34;7.10;99.90
17053;DHT22;8643;48.824;11.422;2024-03-23T01:36:01;7.10;99.90
17053;DHT22;8643;48.824;11.422;2024-03-23T01:38:28;7.00;99.90
17053;DHT22;8643;48.824;11.422;2024-03-23T01:40:57;7.20;99.90
17053;DHT22;8643;48.824;11.422;2024-03-23T01:43:25;6.70;99.90
17053;DHT22;8643;48.824;11.422;2024-03-23T01:45:52;6.70;99.90
17053;DHT22;8643;48.824;11.422;2024-03-23T01:48:20;6.60;99.90
17053;DHT22;8643;48.824;11.422;2024-03-23T01:50:47;6.60;99.90
17053;DHT22;8643;48.824;11.422;2024-03-23T01:53:15;6.60;99.90
17053;DHT22;8643;48.824;11.422;2024-03-23T01:55:43;7.60;99.90
17053;DHT22;8643;48.824;11.422;2024-03-23T01:58:10;6.40;99.90
17053;DHT22;8643;48.824;11.422;2024-03-23T02:00:38;6.50;99.90
17053;DHT22;8643;48.824;11.422;2024-03-23T02:03:24;6.30;99.90
17053;DHT22;8643;48.824;11.422;2024-03-23T02:05:52;6.40;99.90
17053;DHT22;8643;48.824;11.422;2024-03-23T02:08:22;6.90;99.90
17053;DHT22;8643;48.824;11.422;2024-03-23T02:10:50;6.10;99.90
17053;DHT22;8643;48.824;11.422;2024-03-23T02:13:19;6.10;99.90
17053;DHT22;8643;48.824;11.422;2024-03-23T02:15:47;6.10;99.90
17053;DHT22;8643;48.824;11.422;2024-03-23T02:18:14;6.10;99.90
17053;DHT22;8643;48.824;11.422;2024-03-23T02:20:41;6.10;99.90
17053;DHT22;8643;48.824;11.422;2024-03-23T02:23:14;6.10;99.90
17053;DHT22;8643;48.824;11.422;2024-03-23T02:25:41;6.00;99.90
17053;DHT22;8643;48.824;11.422;2024-03-23T02:28:08;7.30;99.90
17053;DHT22;8643;48.824;11.422;2024-03-23T02:30:35;6.00;99.90
17053;DHT22;8643;48.824;11.422;2024-03-23T02:33:03;6.00;99.90
17053;DHT22;8643;48.824;11.422;2024-03-23T02:35:30;6.00;99.90
17053;DHT22;8643;48.824;11.422;2024-03-23T02:37:58;6.10;99.90
17053;DHT22;8643;48.824;11.422;2024-03-23T02:40:28;6.10;99.90
17053;DHT22;8643;48.824;11.422;2024-03-23T02:42:56;6.20;99.90
17053;DHT22;8643;48.824;11.422;2024-03-23T02:45:23;6.20;99.90
17053;DHT22;8643;48.824;11.422;2024-03-23T02:47:50;6.20;99.90
17053;DHT22;8643;48.824;11.422;2024-03-23T02:50:18;6.20;99.90
17053;DHT22;8643;48.824;11.422;2024-03-23T02:52:45;6.20;99.90
17053;DHT22;8643;48.824;11.422;2024-03-23T02:55:13;6.30;99.90
17053;DHT22;8643;48.824;11.422;2024-03-23T02:57:41;6.30;99.90
17053;DHT22;8643;48.824;11.422;2024-03-23T03:00:10;6.40;99.90
17053;DHT22;8643;48.824;11.422;2024-03-23T03:02:37;6.40;99.90
17053;DHT22;8643;48.824;11.422;2024-03-23T03:05:05;6.40;99.90
17053;DHT22;8643;48.824;11.422;2024-03-23T03:07:32;6.40;99.90
17053;DHT22;8643;48.824;11.422;2024-03-23T03:10:00;7.80;99.90
17053;DHT22;8643;48.824;11.422;2024-03-23T03:12:26;6.30;99.90
17053;DHT22;8643;48.824;11.422;2024-03-23T03:14:55;6.40;99.90
17053;DHT22;8643;48.824;11.422;2024-03-23T03:17:21;6.50;99.90
17053;DHT22;8643;48.824;11.422;2024-03-23T03:19:49;6.60;99.90
17053;DHT22;8643;48.824;11.422;2024-03-23T03:22:21;6.90;99.90
17053;DHT22;8643;48.824;11.422;2024-03-23T03:24:49;6.80;99.90
17053;DHT22;8643;48.824;11.422;2024-03-23T03:29:44;7.20;99.90
17053;DHT22;8643;48.824;11.422;2024-03-23T03:32:12;7.30;99.90
17053;DHT22;8643;48.824;11.422;2024-03-23T03:34:39;7.30;99.90
17053;DHT22;8643;48.824;11.422;2024-03-23T03:37:06;8.00;99.90
17053;DHT22;8643;48.824;11.422;2024-03-23T03:39:34;7.20;99.90
17053;DHT22;8643;48.824;11.422;2024-03-23T03:42:01;7.20;99.90
17053;DHT22;8643;48.824;11.422;2024-03-23T03:44:32;7.10;99.90
17053;DHT22;8643;48.824;11.422;2024-03-23T03:46:59;7.10;99.90
17053;DHT22;8643;48.824;11.422;2024-03-23T03:49:28;7.00;99.90
17053;DHT22;8643;48.824;11.422;2024-03-23T03:51:54;7.70;99.90
17053;DHT22;8643;48.824;11.422;2024-03-23T03:54:22;6.90;99.90
17053;DHT22;8643;48.824;11.422;2024-03-23T03:56:48;6.90;99.90
17053;DHT22;8643;48.824;11.422;2024-03-23T03:59:16;7.00;99.90
17053;DHT22;8643;48.824;11.422;2024-03-23T04:01:43;8.50;99.90
17053;DHT22;8643;48.824;11.422;2024-03-23T04:04:11;8.10;99.90
17053;DHT22;8643;48.824;11.422;2024-03-23T04:06:39;7.40;99.90
17053;DHT22;8643;48.824;11.422;2024-03-23T04:09:07;7.40;99.90
17053;DHT22;8643;48.824;11.422;2024-03-23T04:11:34;7.60;99.90
17053;DHT22;8643;48.824;11.422;2024-03-23T04:14:01;7.60;99.90
17053;DHT22;8643;48.824;11.422;2024-03-23T04:16:29;8.30;99.90
17053;DHT22;8643;48.824;11.422;2024-03-23T04:18:58;7.70;99.90
17053;DHT22;8643;48.824;11.422;2024-03-23T04:21:25;7.70;99.90
17053;DHT22;8643;48.824;11.422;2024-03-23T04:23:54;7.80;99.90
17053;DHT22;8643;48.824;11.422;2024-03-23T04:26:20;7.90;99.90
17053;DHT22;8643;48.824;11.422;2024-03-23T04:31:14;7.90;99.90
17053;DHT22;8643;48.824;11.422;2024-03-23T04:33:42;7.90;99.90
17053;DHT22;8643;48.824;11.422;2024-03-23T04:36:08;7.80;99.90
17053;DHT22;8643;48.824;11.422;2024-03-23T04:41:05;7.70;99.90
17053;DHT22;8643;48.824;11.422;2024-03-23T04:43:32;7.80;99.90
17053;DHT22;8643;48.824;11.422;2024-03-23T04:46:00;9.30;99.90
17053;DHT22;8643;48.824;11.422;2024-03-23T04:48:27;7.70;99.90
17053;DHT22;8643;48.824;11.422;2024-03-23T04:50:55;7.80;99.90
17053;DHT22;8643;48.824;11.422;2024-03-23T04:53:24;7.80;99.90
17053;DHT22;8643;48.824;11.422;2024-03-23T04:55:54;7.80;99.90
17053;DHT22;8643;48.824;11.422;2024-03-23T04:58:23;7.90;99.90
17053;DHT22;8643;48.824;11.422;2024-03-23T05:00:53;7.90;99.90
17053;DHT22;8643;48.824;11.422;2024-03-23T05:03:21;7.80;99.90
17053;DHT22;8643;48.824;11.422;2024-03-23T05:05:48;7.70;99.90
17053;DHT22;8643;48.824;11.422;2024-03-23T05:08:15;7.60;99.90
17053;DHT22;8643;48.824;11.422;2024-03-23T05:10:43;7.60;99.90
17053;DHT22;8643;48.824;11.422;2024-03-23T05:13:09;9.30;99.90
17053;DHT22;8643;48.824;11.422;2024-03-23T05:15:39;8.10;99.90
17053;DHT22;8643;48.824;11.422;2024-03-23T05:18:06;7.40;99.90
17053;DHT22;8643;48.824;11.422;2024-03-23T05:20:33;7.40;99.90
17053;DHT22;8643;48.824;11.422;2024-03-23T05:23:00;7.40;99.90
17053;DHT22;8643;48.824;11.422;2024-03-23T05:25:27;7.30;99.90
17053;DHT22;8643;48.824;11.422;2024-03-23T05:27:54;7.20;99.90
17053;DHT22;8643;48.824;11.422;2024-03-23T05:30:21;8.30;99.90
17053;DHT22;8643;48.824;11.422;2024-03-23T05:32:49;7.00;99.90
17053;DHT22;8643;48.824;11.422;2024-03-23T05:35:16;6.90;99.90
17053;DHT22;8643;48.824;11.422;2024-03-23T05:37:42;6.90;99.90
17053;DHT22;8643;48.824;11.422;2024-03-23T05:40:11;6.90;99.90
17053;DHT22;8643;48.824;11.422;2024-03-23T05:42:41;6.70;99.90
17053;DHT22;8643;48.824;11.422;2024-03-23T05:45:08;6.70;99.90
17053;DHT22;8643;48.824;11.422;2024-03-23T05:47:35;6.60;99.90
17053;DHT22;8643;48.824;11.422;2024-03-23T05:50:05;6.50;99.90
17053;DHT22;8643;48.824;11.422;2024-03-23T05:52:32;6.60;99.90
17053;DHT22;8643;48.824;11.422;2024-03-23T05:54:59;6.60;99.90
17053;DHT22;8643;48.824;11.422;2024-03-23T05:57:26;6.60;99.90
17053;DHT22;8643;48.824;11.422;2024-03-23T05:59:53;6.60;99.90
17053;DHT22;8643;48.824;11.422;2024-03-23T06:02:20;6.60;99.90
17053;DHT22;8643;48.824;11.422;2024-03-23T06:04:47;6.90;99.90
17053;DHT22;8643;48.824;11.422;2024-03-23T06:07:15;7.10;99.90
17053;DHT22;8643;48.824;11.422;2024-03-23T06:09:42;7.10;99.90
17053;DHT22;8643;48.824;11.422;2024-03-23T06:12:09;7.70;99.90
17053;DHT22;8643;48.824;11.422;2024-03-23T06:14:37;7.90;99.90
17053;DHT22;8643;48.824;11.422;2024-03-23T06:17:03;8.30;99.90
17053;DHT22;8643;48.824;11.422;2024-03-23T06:19:31;8.70;99.90
17053;DHT22;8643;48.824;11.422;2024-03-23T06:21:58;8.70;99.90
17053;DHT22;8643;48.824;11.422;2024-03-23T06:24:27;10.30;99.90
17053;DHT22;8643;48.824;11.422;2024-03-23T06:26:53;10.20;99.90
17053;DHT22;8643;48.824;11.422;2024-03-23T06:29:21;10.20;99.90
17053;DHT22;8643;48.824;11.422;2024-03-23T06:31:53;10.50;99.90
17053;DHT22;8643;48.824;11.422;2024-03-23T06:34:21;10.40;99.90
17053;DHT22;8643;48.824;11.422;2024-03-23T06:36:48;10.30;99.90
17053;DHT22;8643;48.824;11.422;2024-03-23T06:39:16;10.30;99.90
17053;DHT22;8643;48.824;11.422;2024-03-23T06:41:52;10.30;99.90
17053;DHT22;8643;48.824;11.422;2024-03-23T06:44:21;10.20;99.90
17053;DHT22;8643;48.824;11.422;2024-03-23T06:46:47;11.00;99.90
17053;DHT22;8643;48.824;11.422;2024-03-23T06:49:15;10.10;99.90
17053;DHT22;8643;48.824;11.422;2024-03-23T06:51:42;10.10;99.90
17053;DHT22;8643;48.824;11.422;2024-03-23T06:54:09;10.10;99.90
17053;DHT22;8643;48.824;11.422;2024-03-23T06:56:37;10.10;99.90
17053;DHT22;8643;48.824;11.422;2024-03-23T06:59:05;10.10;99.90
17053;DHT22;8643;48.824;11.422;2024-03-23T07:01:32;10.00;99.90
17053;DHT22;8643;48.824;11.422;2024-03-23T07:03:59;9.90;99.90
17053;DHT22;8643;48.824;11.422;2024-03-23T07:06:26;9.90;99.90
17053;DHT22;8643;48.824;11.422;2024-03-23T07:08:53;9.90;99.90
17053;DHT22;8643;48.824;11.422;2024-03-23T07:11:21;9.90;99.90
17053;DHT22;8643;48.824;11.422;2024-03-23T07:13:49;9.80;99.90
17053;DHT22;8643;48.824;11.422;2024-03-23T07:16:19;9.70;99.90
17053;DHT22;8643;48.824;11.422;2024-03-23T07:18:45;9.60;99.90
17053;DHT22;8643;48.824;11.422;2024-03-23T07:21:15;9.60;99.90
17053;DHT22;8643;48.824;11.422;2024-03-23T07:23:42;9.50;99.90
17053;DHT22;8643;48.824;11.422;2024-03-23T07:28:38;9.30;99.90
17053;DHT22;8643;48.824;11.422;2024-03-23T07:31:10;9.20;99.90
17053;DHT22;8643;48.824;11.422;2024-03-23T07:33:42;9.00;99.90
17053;DHT22;8643;48.824;11.422;2024-03-23T07:36:10;9.00;99.90
17053;DHT22;8643;48.824;11.422;2024-03-23T07:38:39;8.90;99.90
17053;DHT22;8643;48.824;11.422;2024-03-23T07:41:08;8.90;99.90
17053;DHT22;8643;48.824;11.422;2024-03-23T07:43:37;8.80;99.90
17053;DHT22;8643;48.824;11.422;2024-03-23T07:46:06;8.70;99.90
17053;DHT22;8643;48.824;11.422;2024-03-23T07:48:33;10.20;99.90
17053;DHT22;8643;48.824;11.422;2024-03-23T07:51:03;8.50;99.90
17053;DHT22;8643;48.824;11.422;2024-03-23T07:53:31;8.40;99.90
17053;DHT22;8643;48.824;11.422;2024-03-23T07:56:00;8.50;99.90
17053;DHT22;8643;48.824;11.422;2024-03-23T08:00:56;6.80;99.90
17053;DHT22;8643;48.824;11.422;2024-03-23T08:03:31;8.40;99.90
17053;DHT22;8643;48.824;11.422;2024-03-23T08:08:27;8.50;99.90
17053;DHT22;8643;48.824;11.422;2024-03-23T08:10:53;8.40;99.90
17053;DHT22;8643;48.824;11.422;2024-03-23T08:13:21;8.40;99.90
17053;DHT22;8643;48.824;11.422;2024-03-23T08:15:48;8.40;99.90
17053;DHT22;8643;48.824;11.422;2024-03-23T08:18:15;8.40;99.90
17053;DHT22;8643;48.824;11.422;2024-03-23T08:20:42;8.50;99.90
17053;DHT22;8643;48.824;11.422;2024-03-23T08:23:09;8.60;99.90
17053;DHT22;8643;48.824;11.422;2024-03-23T08:25:37;8.60;99.90
17053;DHT22;8643;48.824;11.422;2024-03-23T08:28:05;8.80;99.90
17053;DHT22;8643;48.824;11.422;2024-03-23T08:30:35;8.70;99.90
17053;DHT22;8643;48.824;11.422;2024-03-23T08:33:03;9.40;99.90
17053;DHT22;8643;48.824;11.422;2024-03-23T08:35:30;9.20;99.90
17053;DHT22;8643;48.824;11.422;2024-03-23T08:37:58;9.30;99.90
17053;DHT22;8643;48.824;11.422;2024-03-23T08:40:24;9.40;99.90
17053;DHT22;8643;48.824;11.422;2024-03-23T08:42:53;9.40;99.90
17053;DHT22;8643;48.824;11.422;2024-03-23T08:45:20;9.50;99.90
17053;DHT22;8643;48.824;11.422;2024-03-23T08:47:48;9.80;99.90
17053;DHT22;8643;48.824;11.422;2024-03-23T08:50:14;9.80;99.90
17053;DHT22;8643;48.824;11.422;2024-03-23T08:52:42;10.00;99.90
17053;DHT22;8643;48.824;11.422;2024-03-23T08:57:36;9.80;99.90
17053;DHT22;8643;48.824;11.422;2024-03-23T09:00:05;9.70;99.90
17053;DHT22;8643;48.824;11.422;2024-03-23T09:02:37;9.70;99.90
17053;DHT22;8643;48.824;11.422;2024-03-23T09:05:04;9.60;99.90
17053;DHT22;8643;48.824;11.422;2024-03-23T09:07:32;9.70;99.90
17053;DHT22;8643;48.824;11.422;2024-03-23T09:09:59;9.60;99.90
17053;DHT22;8643;48.824;11.422;2024-03-23T09:12:26;9.70;99.90
17053;DHT22;8643;48.824;11.422;2024-03-23T09:14:53;9.70;99.90
17053;DHT22;8643;48.824;11.422;2024-03-23T09:17:22;9.90;99.90
17053;DHT22;8643;48.824;11.422;2024-03-23T09:19:48;9.90;99.90
17053;DHT22;8643;48.824;11.422;2024-03-23T09:22:16;10.00;99.90
17053;DHT22;8643;48.824;11.422;2024-03-23T09:24:42;10.20;99.90
17053;DHT22;8643;48.824;11.422;2024-03-23T09:27:10;10.20;99.90
17053;DHT22;8643;48.824;11.422;2024-03-23T09:29:36;10.60;99.90
17053;DHT22;8643;48.824;11.422;2024-03-23T09:32:04;10.10;99.90
17053;DHT22;8643;48.824;11.422;2024-03-23T09:34:34;10.00;99.90
17053;DHT22;8643;48.824;11.422;2024-03-23T09:37:01;9.70;99.90
17053;DHT22;8643;48.824;11.422;2024-03-23T09:39:27;10.20;99.90
17053;DHT22;8643;48.824;11.422;2024-03-23T09:41:57;10.30;99.90
17053;DHT22;8643;48.824;11.422;2024-03-23T09:44:24;10.40;99.90
17053;DHT22;8643;48.824;11.422;2024-03-23T09:46:55;10.30;99.90
17053;DHT22;8643;48.824;11.422;2024-03-23T09:49:22;10.10;99.90
17053;DHT22;8643;48.824;11.422;2024-03-23T09:51:51;10.10;99.90
17053;DHT22;8643;48.824;11.422;2024-03-23T09:54:18;10.50;99.90
17053;DHT22;8643;48.824;11.422;2024-03-23T09:56:46;10.10;99.90
17053;DHT22;8643;48.824;11.422;2024-03-23T09:59:12;10.30;99.90
17053;DHT22;8643;48.824;11.422;2024-03-23T10:01:40;11.10;99.90
17053;DHT22;8643;48.824;11.422;2024-03-23T10:04:06;11.50;99.90
17053;DHT22;8643;48.824;11.422;2024-03-23T10:06:34;10.60;99.90
17053;DHT22;8643;48.824;11.422;2024-03-23T10:09:02;10.20;99.90
17053;DHT22;8643;48.824;11.422;2024-03-23T10:11:44;10.30;99.90
17053;DHT22;8643;48.824;11.422;2024-03-23T10:14:28;10.20;99.90
17053;DHT22;8643;48.824;11.422;2024-03-23T10:17:12;10.20;99.90
17053;DHT22;8643;48.824;11.422;2024-03-23T10:19:40;10.10;99.90
17053;DHT22;8643;48.824;11.422;2024-03-23T10:22:10;10.10;99.90
17053;DHT22;8643;48.824;11.422;2024-03-23T10:24:41;10.00;99.90
17053;DHT22;8643;48.824;11.422;2024-03-23T10:27:09;10.00;99.90
17053;DHT22;8643;48.824;11.422;2024-03-23T10:29:35;9.90;99.90
17053;DHT22;8643;48.824;11.422;2024-03-23T10:32:10;9.80;99.90
17053;DHT22;8643;48.824;11.422;2024-03-23T10:34:38;9.70;99.90
17053;DHT22;8643;48.824;11.422;2024-03-23T10:37:07;9.40;99.90
17053;DHT22;8643;48.824;11.422;2024-03-23T10:39:34;9.30;99.90
17053;DHT22;8643;48.824;11.422;2024-03-23T10:42:06;9.40;99.90
17053;DHT22;8643;48.824;11.422;2024-03-23T10:44:34;9.20;99.90
17053;DHT22;8643;48.824;11.422;2024-03-23T10:47:03;9.10;99.90
17053;DHT22;8643;48.824;11.422;2024-03-23T10:49:31;9.30;99.90
17053;DHT22;8643;48.824;11.422;2024-03-23T10:52:02;9.20;99.90
17053;DHT22;8643;48.824;11.422;2024-03-23T10:54:30;9.10;99.90
17053;DHT22;8643;48.824;11.422;2024-03-23T10:57:03;9.10;99.90
17053;DHT22;8643;48.824;11.422;2024-03-23T10:59:36;9.10;99.90
17053;DHT22;8643;48.824;11.422;2024-03-23T11:02:04;8.80;99.90
17053;DHT22;8643;48.824;11.422;2024-03-23T11:04:35;8.50;99.90
17053;DHT22;8643;48.824;11.422;2024-03-23T11:07:29;8.90;99.90
17053;DHT22;8643;48.824;11.422;2024-03-23T11:09:58;8.90;99.90
17053;DHT22;8643;48.824;11.422;2024-03-23T11:12:31;9.40;99.90
17053;DHT22;8643;48.824;11.422;2024-03-23T11:15:04;9.40;99.90
17053;DHT22;8643;48.824;11.422;2024-03-23T11:17:33;9.50;99.90
17053;DHT22;8643;48.824;11.422;2024-03-23T11:20:00;10.20;99.90
17053;DHT22;8643;48.824;11.422;2024-03-23T11:22:42;10.20;99.90
17053;DHT22;8643;48.824;11.422;2024-03-23T11:25:14;10.50;99.90
17053;DHT22;8643;48.824;11.422;2024-03-23T11:27:49;10.20;99.90
17053;DHT22;8643;48.824;11.422;2024-03-23T11:30:18;10.00;99.90
17053;DHT22;8643;48.824;11.422;2024-03-23T11:32:48;10.00;99.90
17053;DHT22;8643;48.824;11.422;2024-03-23T11:35:26;9.80;99.90
17053;DHT22;8643;48.824;11.422;2024-03-23T11:38:05;10.30;99.90
17053;DHT22;8643;48.824;11.422;2024-03-23T11:40:33;10.60;99.90
17053;DHT22;8643;48.824;11.422;2024-03-23T11:43:04;10.70;99.90
17053;DHT22;8643;48.824;11.422;2024-03-23T11:45:36;11.20;99.90
17053;DHT22;8643;48.824;11.422;2024-03-23T11:48:06;11.40;99.90
17053;DHT22;8643;48.824;11.422;2024-03-23T11:50:36;11.50;99.60
17053;DHT22;8643;48.824;11.422;2024-03-23T11:53:16;11.20;99.60
17053;DHT22;8643;48.824;11.422;2024-03-23T11:55:48;10.80;98.60
17053;DHT22;8643;48.824;11.422;2024-03-23T11:58:19;10.80;98.80
17053;DHT22;8643;48.824;11.422;2024-03-23T12:00:52;10.40;99.30
17053;DHT22;8643;48.824;11.422;2024-03-23T12:03:20;10.40;99.30
17053;DHT22;8643;48.824;11.422;2024-03-23T12:05:49;10.10;99.90
17053;DHT22;8643;48.824;11.422;2024-03-23T12:08:21;10.30;99.90
17053;DHT22;8643;48.824;11.422;2024-03-23T12:10:51;11.00;98.10
17053;DHT22;8643;48.824;11.422;2024-03-23T12:13:21;11.90;96.00
17053;DHT22;8643;48.824;11.422;2024-03-23T12:15:50;12.90;94.90
17053;DHT22;8643;48.824;11.422;2024-03-23T12:18:17;12.80;92.50
17053;DHT22;8643;48.824;11.422;2024-03-23T12:20:50;12.00;91.50
17053;DHT22;8643;48.824;11.422;2024-03-23T12:23:16;11.20;92.70
17053;DHT22;8643;48.824;11.422;2024-03-23T12:25:44;10.80;92.50
17053;DHT22;8643;48.824;11.422;2024-03-23T12:28:10;10.70;92.70
17053;DHT22;8643;48.824;11.422;2024-03-23T12:30:40;10.80;94.20
17053;DHT22;8643;48.824;11.422;2024-03-23T12:33:06;10.80;94.20
17053;DHT22;8643;48.824;11.422;2024-03-23T12:35:34;10.90;93.70
17053;DHT22;8643;48.824;11.422;2024-03-23T12:38:01;11.50;90.90
17053;DHT22;8643;48.824;11.422;2024-03-23T12:40:28;11.40;91.70
17053;DHT22;8643;48.824;11.422;2024-03-23T12:42:55;11.20;91.10
17053;DHT22;8643;48.824;11.422;2024-03-23T12:45:23;10.90;90.90
17053;DHT22;8643;48.824;11.422;2024-03-23T12:47:51;10.90;91.10
17053;DHT22;8643;48.824;11.422;2024-03-23T12:50:20;10.50;90.30
17053;DHT22;8643;48.824;11.422;2024-03-23T12:52:47;10.50;90.50
17053;DHT22;8643;48.824;11.422;2024-03-23T12:55:15;10.00;91.60
17053;DHT22;8643;48.824;11.422;2024-03-23T12:57:42;10.00;91.40
17053;DHT22;8643;48.824;11.422;2024-03-23T13:00:10;10.00;91.20
17053;DHT22;8643;48.824;11.422;2024-03-23T13:02:38;9.90;90.50
17053;DHT22;8643;48.824;11.422;2024-03-23T13:05:08;10.00;90.70
17053;DHT22;8643;48.824;11.422;2024-03-23T13:07:35;9.80;91.40
17053;DHT22;8643;48.824;11.422;2024-03-23T13:10:04;9.70;91.90
17053;DHT22;8643;48.824;11.422;2024-03-23T13:12:31;9.70;92.10
17053;DHT22;8643;48.824;11.422;2024-03-23T13:14:59;9.60;92.20
17053;DHT22;8643;48.824;11.422;2024-03-23T13:17:26;9.60;92.40
17053;DHT22;8643;48.824;11.422;2024-03-23T13:19:54;9.50;91.90
17053;DHT22;8643;48.824;11.422;2024-03-23T13:22:22;9.50;92.30
17053;DHT22;8643;48.824;11.422;2024-03-23T13:24:50;9.30;92.40
17053;DHT22;8643;48.824;11.422;2024-03-23T13:27:16;9.20;93.60
17053;DHT22;8643;48.824;11.422;2024-03-23T13:29:44;9.20;94.20
17053;DHT22;8643;48.824;11.422;2024-03-23T13:32:12;9.10;96.50
17053;DHT22;8643;48.824;11.422;2024-03-23T13:34:40;8.90;97.80
17053;DHT22;8643;48.824;11.422;2024-03-23T13:37:07;8.90;98.30
17053;DHT22;8643;48.824;11.422;2024-03-23T13:39:37;8.50;99.90
17053;DHT22;8643;48.824;11.422;2024-03-23T13:42:03;7.90;99.90
17053;DHT22;8643;48.824;11.422;2024-03-23T13:44:31;8.40;99.90
17053;DHT22;8643;48.824;11.422;2024-03-23T13:46:58;8.40;99.90
17053;DHT22;8643;48.824;11.422;2024-03-23T13:49:27;8.40;99.90
17053;DHT22;8643;48.824;11.422;2024-03-23T13:51:55;8.40;99.90
17053;DHT22;8643;48.824;11.422;2024-03-23T13:54:24;8.50;99.90
17053;DHT22;8643;48.824;11.422;2024-03-23T13:56:52;8.80;99.90
17053;DHT22;8643;48.824;11.422;2024-03-23T13:59:21;9.00;99.90
17053;DHT22;8643;48.824;11.422;2024-03-23T14:01:49;9.10;99.90
17053;DHT22;8643;48.824;11.422;2024-03-23T14:04:17;9.10;99.90
17053;DHT22;8643;48.824;11.422;2024-03-23T14:06:46;9.10;98.60
17053;DHT22;8643;48.824;11.422;2024-03-23T14:09:14;9.20;97.40
17053;DHT22;8643;48.824;11.422;2024-03-23T14:11:46;10.00;97.60
17053;DHT22;8643;48.824;11.422;2024-03-23T14:14:15;9.20;95.50
17053;DHT22;8643;48.824;11.422;2024-03-23T14:16:42;9.20;96.20
17053;DHT22;8643;48.824;11.422;2024-03-23T14:19:10;9.10;95.30
17053;DHT22;8643;48.824;11.422;2024-03-23T14:21:36;8.90;93.70
17053;DHT22;8643;48.824;11.422;2024-03-23T14:24:05;8.90;94.00
17053;DHT22;8643;48.824;11.422;2024-03-23T14:26:31;8.80;94.20
17053;DHT22;8643;48.824;11.422;2024-03-23T14:28:59;9.80;94.50
17053;DHT22;8643;48.824;11.422;2024-03-23T14:31:27;8.80;94.60
17053;DHT22;8643;48.824;11.422;2024-03-23T14:33:54;8.80;95.40
17053;DHT22;8643;48.824;11.422;2024-03-23T14:36:20;7.70;94.20
17053;DHT22;8643;48.824;11.422;2024-03-23T14:38:48;8.70;94.50
17053;DHT22;8643;48.824;11.422;2024-03-23T14:41:15;8.60;94.70
17053;DHT22;8643;48.824;11.422;2024-03-23T14:43:42;8.70;93.30
17053;DHT22;8643;48.824;11.422;2024-03-23T14:46:10;8.80;92.50
17053;DHT22;8643;48.824;11.422;2024-03-23T14:48:42;8.80;92.40
17053;DHT22;8643;48.824;11.422;2024-03-23T14:51:10;9.10;92.50
17053;DHT22;8643;48.824;11.422;2024-03-23T14:53:39;9.20;93.50
17053;DHT22;8643;48.824;11.422;2024-03-23T14:56:07;9.60;93.00
17053;DHT22;8643;48.824;11.422;2024-03-23T14:58:36;10.20;92.50
17053;DHT22;8643;48.824;11.422;2024-03-23T15:03:31;11.20;88.80
17053;DHT22;8643;48.824;11.422;2024-03-23T15:05:59;11.10;88.20
17053;DHT22;8643;48.824;11.422;2024-03-23T15:08:27;11.20;86.60
17053;DHT22;8643;48.824;11.422;2024-03-23T15:10:54;11.50;89.80
17053;DHT22;8643;48.824;11.422;2024-03-23T15:13:21;11.50;89.60
17053;DHT22;8643;48.824;11.422;2024-03-23T15:15:48;12.00;86.30
17053;DHT22;8643;48.824;11.422;2024-03-23T15:18:18;12.30;87.20
17053;DHT22;8643;48.824;11.422;2024-03-23T15:20:52;12.30;87.00
17053;DHT22;8643;48.824;11.422;2024-03-23T15:23:21;11.90;85.80
17053;DHT22;8643;48.824;11.422;2024-03-23T15:25:54;11.20;88.80
17053;DHT22;8643;48.824;11.422;2024-03-23T15:28:21;11.40;89.60
17053;DHT22;8643;48.824;11.422;2024-03-23T15:30:49;11.90;86.20
17053;DHT22;8643;48.824;11.422;2024-03-23T15:33:16;12.20;82.00
17053;DHT22;8643;48.824;11.422;2024-03-23T15:35:43;12.30;82.30
17053;DHT22;8643;48.824;11.422;2024-03-23T15:38:10;12.00;80.90
17053;DHT22;8643;48.824;11.422;2024-03-23T15:40:38;12.00;81.30
17053;DHT22;8643;48.824;11.422;2024-03-23T15:43:06;11.50;79.70
17053;DHT22;8643;48.824;11.422;2024-03-23T15:45:32;11.40;80.30
17053;DHT22;8643;48.824;11.422;2024-03-23T15:50:27;9.80;84.30
17053;DHT22;8643;48.824;11.422;2024-03-23T15:52:54;9.70;86.90
17053;DHT22;8643;48.824;11.422;2024-03-23T15:55:22;9.70;86.80
17053;DHT22;8643;48.824;11.422;2024-03-23T15:57:50;9.70;86.50
17053;DHT22;8643;48.824;11.422;2024-03-23T16:00:18;9.40;88.20
17053;DHT22;8643;48.824;11.422;2024-03-23T16:02:46;9.30;90.20
17053;DHT22;8643;48.824;11.422;2024-03-23T16:05:12;9.20;90.30
17053;DHT22;8643;48.824;11.422;2024-03-23T16:07:40;9.00;91.10
17053;DHT22;8643;48.824;11.422;2024-03-23T16:10:07;9.00;91.30
17053;DHT22;8643;48.824;11.422;2024-03-23T16:12:35;8.90;92.00
17053;DHT22;8643;48.824;11.422;2024-03-23T16:15:04;8.80;91.90
17053;DHT22;8643;48.824;11.422;2024-03-23T16:17:32;8.30;98.50
17053;DHT22;8643;48.824;11.422;2024-03-23T16:20:02;6.90;99.90
17053;DHT22;8643;48.824;11.422;2024-03-23T16:22:30;5.90;99.90
17053;DHT22;8643;48.824;11.422;2024-03-23T16:24:57;5.80;99.90
17053;DHT22;8643;48.824;11.422;2024-03-23T16:29:51;4.90;99.90
17053;DHT22;8643;48.824;11.422;2024-03-23T16:32:20;4.80;99.90
17053;DHT22;8643;48.824;11.422;2024-03-23T16:34:49;4.80;99.90
17053;DHT22;8643;48.824;11.422;2024-03-23T16:37:16;4.60;99.90
17053;DHT22;8643;48.824;11.422;2024-03-23T16:39:43;4.70;99.90
17053;DHT22;8643;48.824;11.422;2024-03-23T16:42:10;4.70;99.90
17053;DHT22;8643;48.824;11.422;2024-03-23T16:44:37;4.60;99.90
17053;DHT22;8643;48.824;11.422;2024-03-23T16:47:05;4.80;99.90
17053;DHT22;8643;48.824;11.422;2024-03-23T16:49:35;5.10;99.90
17053;DHT22;8643;48.824;11.422;2024-03-23T16:52:02;5.70;99.90
17053;DHT22;8643;48.824;11.422;2024-03-23T16:54:31;5.20;99.90
17053;DHT22;8643;48.824;11.422;2024-03-23T16:56:57;5.20;99.90
17053;DHT22;8643;48.824;11.422;2024-03-23T16:59:25;5.20;99.90
17053;DHT22;8643;48.824;11.422;2024-03-23T17:01:51;5.00;99.90
17053;DHT22;8643;48.824;11.422;2024-03-23T17:04:21;5.00;99.90